Time;durP1;ratioP1;P1;durP2;ratioP2;P2;SDS_P1;SDS_P2;PMS_P1;PMS_P2;Temp;Humidity;BMP_temperature;BMP_pressure;BME280_temperature;BME280_humidity;BME280_pressure;Samples;Min_cycle;Max_cycle;Signal;HPM_P1;HPM_P2
2022/06/15 00:01:45;;;;;;;3.25;1.60;;;26.40;59.20;;;;;;6367749;22;20055;-79
2022/06/15 00:04:11;;;;;;;2.97;1.55;;;26.40;59.10;;;;;;6369011;22;20002;-78
2022/06/15 00:06:39;;;;;;;4.43;1.98;;;26.40;59.20;;;;;;6366898;22;20127;-79
2022/06/15 00:09:05;;;;;;;1.73;1.08;;;26.30;59.10;;;;;;6369229;22;20009;-78
2022/06/15 00:11:36;;;;;;;2.58;1.38;;;26.40;59.20;;;;;;6367654;22;19999;-78
2022/06/15 00:14:06;;;;;;;2.78;1.38;;;26.40;59.20;;;;;;6369297;22;19999;-77
2022/06/15 00:16:32;;;;;;;2.75;1.50;;;26.30;59.10;;;;;;6369934;22;20432;-77
2022/06/15 00:18:58;;;;;;;2.97;1.58;;;26.30;59.10;;;;;;6367822;22;20051;-76
2022/06/15 00:21:24;;;;;;;2.28;1.25;;;26.30;59.10;;;;;;6368247;22;20013;-76
2022/06/15 00:23:50;;;;;;;2.38;1.50;;;26.30;59.30;;;;;;6368587;22;20029;-77
2022/06/15 00:26:16;;;;;;;3.17;1.77;;;26.30;59.30;;;;;;6366616;22;20785;-76
2022/06/15 00:28:42;;;;;;;3.70;1.35;;;26.30;59.40;;;;;;6367547;22;20025;-78
2022/06/15 00:31:08;;;;;;;2.55;1.30;;;26.30;59.50;;;;;;6368602;22;20002;-76
2022/06/15 00:33:34;;;;;;;2.53;1.30;;;26.30;59.70;;;;;;6340305;22;20412;-76
2022/06/15 00:36:06;;;;;;;2.40;1.60;;;26.30;59.80;;;;;;6340789;22;20030;-76
2022/06/15 00:38:40;;;;;;;1.92;1.30;;;26.30;59.90;;;;;;6369378;22;19995;-78
2022/06/15 00:41:09;;;;;;;3.13;1.55;;;26.20;60.00;;;;;;6367317;22;20003;-78
2022/06/15 00:43:39;;;;;;;2.65;1.70;;;26.20;60.00;;;;;;6368800;22;20037;-77
2022/06/15 00:46:22;;;;;;;3.55;1.60;;;26.20;60.10;;;;;;6369010;22;20006;-79
2022/06/15 00:48:54;;;;;;;2.40;1.75;;;26.20;60.30;;;;;;6369189;22;20002;-78
2022/06/15 00:51:21;;;;;;;2.33;1.88;;;26.20;60.20;;;;;;6368084;22;20087;-79
2022/06/15 00:53:47;;;;;;;3.03;1.60;;;26.20;60.10;;;;;;6369566;22;19995;-78
2022/06/15 00:56:15;;;;;;;3.08;1.70;;;26.20;60.10;;;;;;6368376;22;20006;-78
2022/06/15 00:58:46;;;;;;;3.28;1.77;;;26.20;60.00;;;;;;6369052;22;19995;-79
2022/06/15 01:01:11;;;;;;;4.15;2.08;;;26.20;60.10;;;;;;6368467;22;20009;-78
2022/06/15 01:03:37;;;;;;;2.42;2.00;;;26.20;60.00;;;;;;6369200;22;20089;-78
2022/06/15 01:06:41;;;;;;;3.00;2.00;;;26.20;60.00;;;;;;6367641;22;20021;-78
2022/06/15 01:09:18;;;;;;;3.63;1.70;;;26.20;60.30;;;;;;6368678;22;20052;-79
2022/06/15 01:11:44;;;;;;;2.88;2.22;;;26.10;60.30;;;;;;6368040;22;20007;-77
2022/06/15 01:14:27;;;;;;;2.95;2.10;;;26.10;60.30;;;;;;6368665;22;20412;-78
2022/06/15 01:17:01;;;;;;;3.92;2.45;;;26.10;60.20;;;;;;6369546;22;19999;-78
2022/06/15 01:19:51;;;;;;;4.13;2.17;;;26.10;60.10;;;;;;6367971;22;19994;-78
2022/06/15 01:22:35;;;;;;;3.65;2.22;;;26.10;60.10;;;;;;6368746;22;20424;-78
2022/06/15 01:25:33;;;;;;;3.13;2.55;;;26.10;60.10;;;;;;6365109;22;20009;-78
2022/06/15 01:28:25;;;;;;;3.33;2.38;;;26.10;60.40;;;;;;6368974;22;20336;-78
2022/06/15 01:31:13;;;;;;;3.58;2.20;;;26.10;60.50;;;;;;6366832;22;20073;-78
2022/06/15 01:33:58;;;;;;;5.35;2.95;;;26.00;60.20;;;;;;6367028;22;20079;-79
2022/06/15 01:36:36;;;;;;;2.75;2.15;;;26.00;60.30;;;;;;6368983;22;19998;-78
2022/06/15 01:39:19;;;;;;;4.78;2.60;;;26.00;60.60;;;;;;6370323;22;20081;-78
2022/06/15 01:41:56;;;;;;;3.70;2.50;;;26.00;60.80;;;;;;6370390;22;20379;-78
2022/06/15 01:44:29;;;;;;;3.58;2.42;;;25.90;60.60;;;;;;6343110;22;20007;-78
2022/06/15 01:46:56;;;;;;;3.38;2.20;;;26.00;60.70;;;;;;6369990;22;20002;-78
2022/06/15 01:49:33;;;;;;;4.63;2.33;;;26.00;60.80;;;;;;6342673;22;20006;-78
2022/06/15 01:52:02;;;;;;;4.05;2.08;;;25.90;61.00;;;;;;6369498;22;20002;-78
2022/06/15 01:54:37;;;;;;;3.22;1.77;;;25.90;60.80;;;;;;6371119;22;20074;-78
2022/06/15 01:57:05;;;;;;;3.20;1.73;;;25.90;60.70;;;;;;6341983;22;20002;-78
2022/06/15 01:59:42;;;;;;;2.95;1.92;;;25.90;60.80;;;;;;6370552;22;19995;-78
2022/06/15 02:02:11;;;;;;;4.15;1.40;;;25.90;60.90;;;;;;6342325;22;20075;-78
2022/06/15 02:04:53;;;;;;;5.07;1.65;;;25.90;60.90;;;;;;6370321;22;20002;-78
2022/06/15 02:07:22;;;;;;;4.50;1.88;;;25.90;61.20;;;;;;6371147;22;20016;-78
2022/06/15 02:10:00;;;;;;;2.65;1.50;;;25.80;60.90;;;;;;6370215;22;20033;-77
2022/06/15 02:12:51;;;;;;;1.52;1.20;;;25.80;60.80;;;;;;6370732;22;20051;-77
2022/06/15 02:15:25;;;;;;;5.55;1.90;;;25.80;60.70;;;;;;6369484;22;20428;-77
2022/06/15 02:17:53;;;;;;;2.55;1.50;;;25.80;61.00;;;;;;6342937;22;20025;-77
2022/06/15 02:20:29;;;;;;;3.20;1.92;;;25.70;61.20;;;;;;6370234;22;20114;-77
2022/06/15 02:22:59;;;;;;;2.08;1.45;;;25.70;60.80;;;;;;6369379;22;19999;-76
2022/06/15 02:25:33;;;;;;;3.97;2.00;;;25.70;60.80;;;;;;6369976;22;20014;-76
2022/06/15 02:28:01;;;;;;;3.65;1.83;;;25.70;60.90;;;;;;6369863;22;20002;-78
2022/06/15 02:30:28;;;;;;;2.65;1.88;;;25.70;61.10;;;;;;6370504;22;20431;-77
2022/06/15 02:32:55;;;;;;;2.72;1.70;;;25.60;61.30;;;;;;6368338;22;20003;-77
2022/06/15 02:35:22;;;;;;;3.00;2.20;;;25.60;61.40;;;;;;6370471;22;20009;-77
2022/06/15 02:37:50;;;;;;;4.90;2.50;;;25.60;61.40;;;;;;6370667;22;19994;-76
2022/06/15 02:40:20;;;;;;;5.15;2.35;;;25.50;61.50;;;;;;6370880;22;20009;-76
2022/06/15 02:42:46;;;;;;;;;;;25.50;61.50;;;;;;6369828;22;20337;-76
2022/06/15 02:45:30;;;;;;;6.70;3.13;;;25.40;61.50;;;;;;6341361;22;19951;-77
2022/06/15 02:47:56;;;;;;;3.38;2.55;;;25.40;61.40;;;;;;6368911;22;20428;-77
2022/06/15 02:50:26;;;;;;;4.57;2.30;;;25.40;61.40;;;;;;6368979;22;20006;-76
2022/06/15 02:53:15;;;;;;;4.38;2.38;;;25.40;61.50;;;;;;6369246;22;20033;-79
2022/06/15 02:55:43;;;;;;;3.87;2.60;;;25.40;61.80;;;;;;6370010;22;19994;-79
2022/06/15 02:58:08;;;;;;;4.93;2.85;;;25.30;61.60;;;;;;6342965;22;20251;-83
2022/06/15 03:00:36;;;;;;;4.32;2.28;;;25.30;61.60;;;;;;6370023;22;19994;-80
2022/06/15 03:03:02;;;;;;;3.58;2.38;;;25.30;61.60;;;;;;6367951;22;19999;-80
2022/06/15 03:05:28;;;;;;;2.75;1.98;;;25.30;61.70;;;;;;6367185;22;20436;-81
2022/06/15 03:07:53;;;;;;;3.08;1.90;;;25.30;61.80;;;;;;6369019;22;20028;-80
2022/06/15 03:10:19;;;;;;;3.05;2.20;;;25.30;61.60;;;;;;6369731;22;19995;-84
2022/06/15 03:12:44;;;;;;;3.53;2.13;;;25.30;61.80;;;;;;6370273;22;20377;-81
2022/06/15 03:15:11;;;;;;;3.70;2.50;;;25.30;61.90;;;;;;6369242;22;19998;-81
2022/06/15 03:17:37;;;;;;;4.18;2.05;;;25.20;61.90;;;;;;6370205;22;19998;-83
2022/06/15 03:20:03;;;;;;;7.50;2.67;;;25.20;61.70;;;;;;6342826;22;20052;-83
2022/06/15 03:22:31;;;;;;;4.25;2.78;;;25.20;61.70;;;;;;6369948;22;20032;-85
2022/06/15 03:24:57;;;;;;;2.80;2.17;;;25.10;61.90;;;;;;6370387;22;20003;-84
2022/06/15 03:27:23;;;;;;;4.38;2.70;;;25.10;61.90;;;;;;6370574;22;20055;-84
2022/06/15 03:29:50;;;;;;;3.92;2.33;;;25.00;61.80;;;;;;6370856;22;20009;-84
2022/06/15 03:32:16;;;;;;;3.92;2.95;;;25.10;61.90;;;;;;6370572;22;20002;-83
2022/06/15 03:34:42;;;;;;;4.47;2.30;;;25.00;62.50;;;;;;6369468;22;20044;-83
2022/06/15 03:37:09;;;;;;;3.63;2.35;;;25.00;62.00;;;;;;6370772;22;20005;-84
2022/06/15 03:39:36;;;;;;;3.90;2.22;;;25.00;62.00;;;;;;6370802;22;19994;-80
2022/06/15 03:42:10;;;;;;;5.00;2.55;;;25.00;62.30;;;;;;6370305;22;20006;-81
2022/06/15 03:44:36;;;;;;;4.00;2.42;;;25.10;62.10;;;;;;6369845;22;20002;-77
2022/06/15 03:47:03;;;;;;;3.55;2.35;;;25.10;62.10;;;;;;6341932;22;20006;-78
2022/06/15 03:49:29;;;;;;;4.20;2.20;;;25.00;62.00;;;;;;6369075;22;20298;-78
2022/06/15 03:51:54;;;;;;;3.50;2.10;;;25.00;62.00;;;;;;6368912;22;19998;-78
2022/06/15 03:54:21;;;;;;;4.95;2.47;;;25.00;62.00;;;;;;6341432;22;20462;-77
2022/06/15 03:56:49;;;;;;;3.78;2.40;;;25.00;62.30;;;;;;6370442;22;19998;-81
2022/06/15 03:59:15;;;;;;;4.50;2.63;;;25.00;62.20;;;;;;6370559;22;20067;-80
2022/06/15 04:01:41;;;;;;;2.38;2.10;;;25.00;62.30;;;;;;6370506;22;20078;-80
2022/06/15 04:04:06;;;;;;;3.13;2.03;;;25.00;62.40;;;;;;6369344;22;20452;-81
2022/06/15 04:06:32;;;;;;;7.32;2.97;;;25.10;62.40;;;;;;6370141;22;20029;-81
2022/06/15 04:08:58;;;;;;;4.38;2.30;;;25.10;62.90;;;;;;6369966;22;20025;-81
2022/06/15 04:14:10;;;;;;;3.13;1.95;;;25.00;62.70;;;;;;6369926;22;20041;-81
2022/06/15 04:16:36;;;;;;;4.63;2.53;;;25.00;62.50;;;;;;6370518;22;19998;-80
2022/06/15 04:19:04;;;;;;;3.42;2.13;;;25.00;62.60;;;;;;6369485;22;19999;-80
2022/06/15 04:21:30;;;;;;;3.25;2.45;;;25.00;62.80;;;;;;6369765;22;20002;-80
2022/06/15 04:23:56;;;;;;;4.63;2.72;;;25.00;63.00;;;;;;6369818;22;20065;-81
2022/06/15 04:26:22;;;;;;;3.92;2.22;;;24.90;63.50;;;;;;6341533;22;20007;-81
2022/06/15 04:28:48;;;;;;;4.50;2.78;;;24.80;63.50;;;;;;6367235;22;20010;-80
2022/06/15 04:31:14;;;;;;;3.05;2.33;;;24.80;64.20;;;;;;6367435;22;20010;-77
2022/06/15 04:33:39;;;;;;;3.88;2.40;;;24.70;63.90;;;;;;6368344;22;20018;-77
2022/06/15 04:36:06;;;;;;;3.00;2.13;;;24.70;64.20;;;;;;6370198;22;20005;-77
2022/06/15 04:38:32;;;;;;;3.85;2.45;;;24.80;64.00;;;;;;6368656;22;19999;-78
2022/06/15 04:40:57;;;;;;;6.53;2.33;;;24.80;63.90;;;;;;6367473;22;20098;-78
2022/06/15 04:43:24;;;;;;;3.78;2.33;;;24.80;64.20;;;;;;6367393;22;20024;-78
2022/06/15 04:45:50;;;;;;;5.00;2.67;;;24.90;63.90;;;;;;6369645;22;20055;-77
2022/06/15 04:48:16;;;;;;;3.65;2.25;;;24.90;64.20;;;;;;6341661;22;20010;-77
2022/06/15 04:50:41;;;;;;;3.20;1.90;;;24.90;63.70;;;;;;6367921;22;20492;-76
2022/06/15 04:53:08;;;;;;;3.13;2.05;;;25.00;63.60;;;;;;6367762;22;20073;-76
2022/06/15 04:55:34;;;;;;;5.35;2.08;;;25.00;63.60;;;;;;6367644;22;20005;-76
2022/06/15 04:58:00;;;;;;;5.82;2.20;;;25.10;63.90;;;;;;6369255;22;19998;-78
2022/06/15 05:00:29;;;;;;;4.97;2.05;;;25.10;64.10;;;;;;6368793;22;20001;-76
2022/06/15 05:02:56;;;;;;;3.78;2.30;;;25.10;64.10;;;;;;6368803;22;20006;-77
2022/06/15 05:05:22;;;;;;;4.53;2.40;;;25.20;65.00;;;;;;6338419;22;20006;-77
2022/06/15 05:07:48;;;;;;;2.70;2.00;;;25.20;64.20;;;;;;6368085;22;20394;-77
2022/06/15 05:10:21;;;;;;;3.08;2.20;;;25.20;64.70;;;;;;6340274;22;20037;-77
2022/06/15 05:12:47;;;;;;;4.78;2.53;;;25.20;64.80;;;;;;6369982;22;20420;-77
2022/06/15 05:15:13;;;;;;;5.05;2.22;;;25.20;66.00;;;;;;6371045;22;20025;-78
2022/06/15 05:17:41;;;;;;;2.97;1.90;;;25.20;65.30;;;;;;6342466;22;20329;-77
2022/06/15 05:20:08;;;;;;;7.15;2.05;;;25.30;65.30;;;;;;6371095;22;19998;-77
2022/06/15 05:22:36;;;;;;;3.28;2.05;;;25.30;65.40;;;;;;6370185;22;20002;-77
2022/06/15 05:25:03;;;;;;;5.07;2.25;;;25.40;65.40;;;;;;6370573;22;19999;-77
2022/06/15 05:27:30;;;;;;;4.07;2.42;;;25.40;65.50;;;;;;6370325;22;20041;-80
2022/06/15 05:29:55;;;;;;;3.33;2.10;;;25.40;65.20;;;;;;6343551;22;20006;-79
2022/06/15 05:32:21;;;;;;;5.32;2.30;;;25.40;65.60;;;;;;6342893;22;20431;-79
2022/06/15 05:34:47;;;;;;;3.88;2.42;;;25.40;65.70;;;;;;6370767;22;19995;-79
2022/06/15 05:37:12;;;;;;;3.42;2.47;;;25.40;66.00;;;;;;6369365;22;20006;-78
2022/06/15 05:39:38;;;;;;;4.72;3.35;;;25.40;66.50;;;;;;6369031;22;20408;-77
2022/06/15 05:42:04;;;;;;;6.15;3.65;;;25.30;65.70;;;;;;6369418;22;20060;-76
2022/06/15 05:46:58;;;;;;;3.30;2.58;;;25.00;66.30;;;;;;6372353;22;20045;-78
2022/06/15 05:49:24;;;;;;;4.45;2.47;;;25.00;66.80;;;;;;6371050;22;20002;-77
2022/06/15 05:51:50;;;;;;;3.28;2.53;;;25.00;66.70;;;;;;6371295;22;20014;-77
2022/06/15 05:54:16;;;;;;;4.60;2.50;;;25.10;67.10;;;;;;6370208;22;20417;-78
2022/06/15 05:56:41;;;;;;;4.63;2.20;;;25.10;66.90;;;;;;6370331;22;20098;-77
2022/06/15 05:59:07;;;;;;;4.82;2.47;;;25.30;67.20;;;;;;6371421;22;20070;-77
2022/06/15 06:01:35;;;;;;;8.02;4.97;;;25.30;67.90;;;;;;6369869;22;20032;-77
2022/06/15 06:04:01;;;;;;;5.80;3.15;;;25.30;68.00;;;;;;6369703;22;20037;-76
2022/06/15 06:06:28;;;;;;;4.90;2.65;;;25.20;68.20;;;;;;6369813;22;20046;-77
2022/06/15 06:08:54;;;;;;;5.00;2.88;;;25.20;68.10;;;;;;6370854;22;19998;-79
2022/06/15 06:11:20;;;;;;;5.13;2.67;;;25.30;68.30;;;;;;6370838;22;20017;-79
2022/06/15 06:13:47;;;;;;;4.88;3.00;;;25.30;68.50;;;;;;6371138;22;19995;-80
2022/06/15 06:16:27;;;;;;;4.10;2.75;;;25.40;68.40;;;;;;6369925;22;20053;-81
2022/06/15 06:19:28;;;;;;;3.47;2.97;;;25.40;68.70;;;;;;6341013;22;19998;-81
2022/06/15 06:21:55;;;;;;;5.78;3.30;;;25.40;68.80;;;;;;6341793;22;20006;-80
2022/06/15 06:24:21;;;;;;;3.38;2.80;;;25.50;68.60;;;;;;6370395;22;20082;-81
2022/06/15 06:26:47;;;;;;;5.38;3.38;;;25.50;68.30;;;;;;6370159;22;20668;-82
2022/06/15 06:29:21;;;;;;;3.58;2.55;;;25.60;68.80;;;;;;6340946;22;20401;-79
2022/06/15 06:31:48;;;;;;;4.60;3.75;;;25.60;69.30;;;;;;6369457;22;20034;-77
2022/06/15 06:34:14;;;;;;;6.32;3.10;;;25.50;69.30;;;;;;6342868;22;20005;-76
2022/06/15 06:36:43;;;;;;;4.45;3.22;;;25.50;68.70;;;;;;6342749;22;20090;-76
2022/06/15 06:39:30;;;;;;;5.32;3.80;;;25.50;69.10;;;;;;6370501;22;19998;-76
2022/06/15 06:41:57;;;;;;;5.18;3.10;;;25.60;70.10;;;;;;6368856;22;20014;-75
2022/06/15 06:44:24;;;;;;;4.15;2.90;;;25.60;69.20;;;;;;6342600;22;20014;-74
2022/06/15 06:46:51;;;;;;;4.00;2.53;;;25.70;69.40;;;;;;6371173;22;20009;-76
2022/06/15 06:49:18;;;;;;;2.58;2.33;;;25.70;69.00;;;;;;6370205;22;20408;-76
2022/06/15 06:51:46;;;;;;;4.50;2.50;;;25.80;69.20;;;;;;6370495;22;20074;-76
2022/06/15 06:54:15;;;;;;;5.75;3.13;;;25.90;69.20;;;;;;6371082;22;20443;-76
2022/06/15 06:56:42;;;;;;;3.65;2.35;;;26.00;68.90;;;;;;6371267;22;20005;-76
2022/06/15 06:59:10;;;;;;;3.97;2.55;;;26.00;68.70;;;;;;6371123;22;19994;-74
2022/06/15 07:01:38;;;;;;;3.28;2.70;;;26.00;68.60;;;;;;6371311;22;20030;-74
2022/06/15 07:04:04;;;;;;;4.10;2.80;;;26.10;68.20;;;;;;6368971;22;20052;-75
2022/06/15 07:06:30;;;;;;;5.00;2.92;;;26.20;68.10;;;;;;6371208;22;20041;-75
2022/06/15 07:08:59;;;;;;;4.97;3.00;;;26.20;68.00;;;;;;6370557;22;19998;-75
2022/06/15 07:11:24;;;;;;;3.30;2.17;;;26.20;68.10;;;;;;6370891;22;19998;-75
2022/06/15 07:13:51;;;;;;;2.28;1.55;;;26.30;67.50;;;;;;6370614;22;19999;-75
2022/06/15 07:16:19;;;;;;;2.70;1.77;;;26.20;66.50;;;;;;6370509;22;20025;-75
2022/06/15 07:18:46;;;;;;;3.03;1.80;;;26.30;66.00;;;;;;6370315;22;20315;-76
2022/06/15 07:21:17;;;;;;;2.60;1.70;;;26.30;65.70;;;;;;6363289;22;20036;-75
2022/06/15 07:23:46;;;;;;;3.33;1.80;;;26.40;65.90;;;;;;6368194;22;20030;-76
2022/06/15 07:26:15;;;;;;;17.92;15.77;;;26.40;66.20;;;;;;6341271;22;20064;-76
2022/06/15 07:28:42;;;;;;;23.50;20.33;;;26.40;66.10;;;;;;6369846;22;20006;-76
2022/06/15 07:31:09;;;;;;;15.27;12.45;;;26.40;65.50;;;;;;6365518;22;19998;-76
2022/06/15 07:33:37;;;;;;;4.45;4.05;;;26.50;64.60;;;;;;6341383;22;20057;-76
2022/06/15 07:36:03;;;;;;;4.57;2.25;;;26.50;64.20;;;;;;6368343;22;20006;-76
2022/06/15 07:38:29;;;;;;;2.40;1.63;;;26.60;64.00;;;;;;6370151;22;20352;-76
2022/06/15 07:40:57;;;;;;;1.23;1.00;;;26.60;63.10;;;;;;6370326;22;20069;-78
2022/06/15 07:43:23;;;;;;;1.75;1.27;;;26.60;63.00;;;;;;6370170;22;20010;-76
2022/06/15 07:45:49;;;;;;;1.90;1.20;;;26.70;63.00;;;;;;6370578;22;20006;-76
2022/06/15 07:50:59;;;;;;;2.88;1.60;;;26.80;63.00;;;;;;6370052;22;20039;-77
2022/06/15 07:53:25;;;;;;;3.03;1.77;;;26.80;63.40;;;;;;6370637;22;20075;-76
2022/06/15 07:55:52;;;;;;;1.95;1.40;;;26.80;63.50;;;;;;6342956;22;20005;-76
2022/06/15 07:58:19;;;;;;;1.95;1.50;;;26.90;63.50;;;;;;6370478;22;20029;-76
2022/06/15 08:00:47;;;;;;;2.25;1.50;;;27.00;63.60;;;;;;6342598;22;19999;-76
2022/06/15 08:03:14;;;;;;;4.20;1.45;;;27.00;63.40;;;;;;6369939;22;20424;-76
2022/06/15 08:05:43;;;;;;;2.47;1.27;;;27.10;63.40;;;;;;6370638;22;20073;-76
2022/06/15 08:08:18;;;;;;;2.10;1.07;;;27.10;63.10;;;;;;6370341;22;19995;-76
2022/06/15 08:10:44;;;;;;;4.38;1.30;;;27.20;61.30;;;;;;6369984;22;20075;-78
2022/06/15 08:13:10;;;;;;;1.80;1.35;;;27.20;60.70;;;;;;6369567;22;19999;-77
2022/06/15 08:15:36;;;;;;;3.25;1.20;;;27.30;59.90;;;;;;6370182;22;19994;-77
2022/06/15 08:18:07;;;;;;;1.58;0.98;;;27.30;59.10;;;;;;6370309;22;20002;-76
2022/06/15 08:20:37;;;;;;;2.47;0.93;;;27.40;58.30;;;;;;6370000;22;20070;-78
2022/06/15 08:23:05;;;;;;;;;;;27.50;58.10;;;;;;6370418;22;20081;-77
2022/06/15 08:25:37;;;;;;;1.75;1.08;;;27.50;55.50;;;;;;6369775;22;20233;-77
2022/06/15 08:28:04;;;;;;;3.47;1.40;;;27.50;57.00;;;;;;6369961;22;20482;-77
2022/06/15 08:30:31;;;;;;;2.45;1.40;;;27.60;56.60;;;;;;6342326;22;20033;-76
2022/06/15 08:32:56;;;;;;;2.65;1.50;;;27.60;56.90;;;;;;6369744;22;20098;-78
2022/06/15 08:35:22;;;;;;;1.83;1.45;;;27.60;56.90;;;;;;6368703;22;20081;-76
2022/06/15 08:37:48;;;;;;;2.13;1.08;;;27.70;57.60;;;;;;6342244;22;20006;-77
2022/06/15 08:40:15;;;;;;;1.58;1.08;;;27.70;58.40;;;;;;6341899;22;20002;-77
2022/06/15 08:42:59;;;;;;;5.22;1.88;;;27.80;59.30;;;;;;6368395;22;20106;-77
2022/06/15 08:45:43;;;;;;;3.10;1.88;;;27.90;59.00;;;;;;6342167;22;20012;-77
2022/06/15 08:48:36;;;;;;;2.72;1.60;;;27.90;58.60;;;;;;6370068;22;20048;-77
2022/06/15 08:51:30;;;;;;;2.35;2.15;;;28.00;59.00;;;;;;6369002;22;20009;-78
2022/06/15 08:54:17;;;;;;;2.97;1.73;;;28.10;58.00;;;;;;6358045;22;20006;-77
2022/06/15 08:57:13;;;;;;;2.00;1.30;;;28.10;57.50;;;;;;6369785;22;19999;-77
2022/06/15 08:59:45;;;;;;;2.38;1.60;;;28.10;56.60;;;;;;6369379;22;20005;-78
2022/06/15 09:02:35;;;;;;;4.40;1.90;;;28.20;56.90;;;;;;6370377;22;20067;-75
2022/06/15 09:05:25;;;;;;;1.93;1.73;;;28.30;56.30;;;;;;6341609;22;20032;-76
2022/06/15 09:08:08;;;;;;;3.10;1.88;;;28.40;56.10;;;;;;6369570;22;20227;-76
2022/06/15 09:10:46;;;;;;;1.63;1.27;;;28.40;57.00;;;;;;6369695;22;20027;-77
2022/06/15 09:13:32;;;;;;;1.30;1.13;;;28.40;57.10;;;;;;6369767;22;20082;-76
2022/06/15 09:16:19;;;;;;;2.10;1.10;;;28.50;57.40;;;;;;6305797;22;19999;-77
2022/06/15 09:18:54;;;;;;;1.77;1.00;;;28.60;57.30;;;;;;6370955;22;20327;-80
2022/06/15 09:21:30;;;;;;;1.55;1.27;;;28.60;57.30;;;;;;6370882;22;20313;-81
2022/06/15 09:24:11;;;;;;;2.00;1.08;;;28.70;56.30;;;;;;6370431;22;20063;-76
2022/06/15 09:26:45;;;;;;;2.53;1.30;;;28.80;55.10;;;;;;6369704;22;20058;-78
2022/06/15 09:29:17;;;;;;;3.30;1.38;;;28.80;54.20;;;;;;6370373;22;19998;-82
2022/06/15 09:31:51;;;;;;;2.17;1.55;;;28.80;54.10;;;;;;6370787;22;19998;-82
2022/06/15 09:34:29;;;;;;;2.40;1.35;;;28.90;54.20;;;;;;6369825;22;19995;-81
2022/06/15 09:36:57;;;;;;;2.22;1.30;;;28.90;53.50;;;;;;6370126;22;19994;-80
2022/06/15 09:39:25;;;;;;;1.70;0.98;;;29.00;52.40;;;;;;6370050;22;20089;-81
2022/06/15 09:42:21;;;;;;;2.20;1.20;;;29.10;52.50;;;;;;6370317;22;20031;-80
2022/06/15 09:45:06;;;;;;;2.03;1.50;;;29.10;51.70;;;;;;6270801;22;20069;-81
2022/06/15 09:47:38;;;;;;;3.03;1.55;;;29.20;52.30;;;;;;6307719;22;19999;-78
2022/06/15 09:50:23;;;;;;;2.40;1.45;;;29.20;52.50;;;;;;6307373;22;20025;-77
2022/06/15 09:52:59;;;;;;;2.42;1.42;;;29.30;52.20;;;;;;6300061;22;20017;-76
2022/06/15 09:55:25;;;;;;;3.00;1.70;;;29.40;52.90;;;;;;6304153;22;19999;-77
2022/06/15 09:57:53;;;;;;;2.05;1.23;;;29.50;53.60;;;;;;6307892;22;20052;-80
2022/06/15 10:00:20;;;;;;;1.70;1.10;;;29.50;53.80;;;;;;6312345;22;19991;-80
2022/06/15 10:02:51;;;;;;;3.42;1.38;;;29.60;53.90;;;;;;6311607;22;20041;-81
2022/06/15 10:05:24;;;;;;;2.20;1.45;;;29.70;53.60;;;;;;6312907;22;20017;-81
2022/06/15 10:07:53;;;;;;;2.70;1.40;;;29.70;52.80;;;;;;6311786;22;20082;-80
2022/06/15 10:10:48;;;;;;;3.95;1.38;;;29.80;53.50;;;;;;6309546;22;20005;-81
2022/06/15 10:13:19;;;;;;;4.18;1.17;;;29.90;52.90;;;;;;6307235;22;20003;-80
2022/06/15 10:16:14;;;;;;;1.95;1.23;;;30.00;53.10;;;;;;6314362;22;20045;-81
2022/06/15 10:18:46;;;;;;;3.25;1.20;;;30.00;52.60;;;;;;6285441;22;20003;-80
2022/06/15 10:21:12;;;;;;;6.57;1.20;;;30.10;51.80;;;;;;6308396;22;20003;-80
2022/06/15 10:23:40;;;;;;;2.17;1.30;;;30.20;51.70;;;;;;6309757;22;20007;-81
2022/06/15 10:26:11;;;;;;;2.17;1.30;;;30.20;51.70;;;;;;6308807;22;20053;-80
2022/06/15 10:28:41;;;;;;;2.08;1.30;;;30.30;51.50;;;;;;6307880;22;20012;-82
2022/06/15 10:31:13;;;;;;;5.97;1.83;;;30.40;52.20;;;;;;6309664;22;20459;-79
2022/06/15 10:33:49;;;;;;;2.60;1.70;;;30.50;51.80;;;;;;6310086;22;20003;-80
2022/06/15 10:36:36;;;;;;;7.95;2.33;;;30.50;52.50;;;;;;6308607;22;19995;-81
2022/06/15 10:39:12;;;;;;;3.80;1.35;;;30.60;52.20;;;;;;6309718;22;20006;-82
2022/06/15 10:41:48;;;;;;;2.28;1.73;;;30.60;51.00;;;;;;6307965;22;20071;-81
2022/06/15 10:44:26;;;;;;;1.52;1.30;;;30.70;50.90;;;;;;6336407;22;20441;-82
2022/06/15 10:46:59;;;;;;;2.65;1.40;;;30.80;50.70;;;;;;6338800;22;20066;-80
2022/06/15 10:49:28;;;;;;;1.92;1.42;;;30.90;50.80;;;;;;6338227;22;19999;-80
2022/06/15 10:51:54;;;;;;;2.15;1.35;;;30.90;50.50;;;;;;6338214;22;19999;-82
2022/06/15 10:54:31;;;;;;;3.50;1.55;;;31.00;50.70;;;;;;6337833;22;20075;-80
2022/06/15 11:02:50;;;;;;;3.65;1.58;;;31.30;51.30;;;;;;6338749;22;20018;-80
2022/06/15 11:05:20;;;;;;;1.55;1.30;;;31.40;50.90;;;;;;6337784;22;20007;-81
2022/06/15 11:07:57;;;;;;;2.95;1.20;;;31.50;50.10;;;;;;6337328;22;20312;-81
2022/06/15 11:10:29;;;;;;;1.45;1.23;;;31.50;49.70;;;;;;6336077;22;20009;-81
2022/06/15 11:13:05;;;;;;;3.05;1.70;;;31.70;49.70;;;;;;6338134;22;20003;-81
2022/06/15 11:18:31;;;;;;;2.88;1.27;;;31.60;49.90;;;;;;6335474;22;20117;-77
2022/06/15 11:21:37;;;;;;;2.42;1.25;;;31.60;48.80;;;;;;6335630;22;20082;-77
2022/06/15 11:24:44;;;;;;;3.58;1.50;;;31.70;49.10;;;;;;6240511;23;20011;-76
2022/06/15 11:27:31;;;;;;;4.72;1.85;;;32.00;47.90;;;;;;6323532;22;20013;-77
2022/06/15 11:30:23;;;;;;;1.92;1.42;;;32.30;48.30;;;;;;6335947;22;20047;-78
2022/06/15 11:33:37;;;;;;;2.20;1.50;;;32.40;48.80;;;;;;6336245;22;20156;-78
2022/06/15 11:36:16;;;;;;;1.45;1.17;;;32.70;47.30;;;;;;6316198;22;20078;-78
2022/06/15 11:39:10;;;;;;;2.65;1.67;;;33.00;47.30;;;;;;6334547;22;20071;-77
2022/06/15 11:41:54;;;;;;;3.80;1.73;;;33.50;47.40;;;;;;6335192;22;20003;-77
2022/06/15 11:44:25;;;;;;;3.03;1.27;;;33.90;47.40;;;;;;6366972;22;20068;-78
2022/06/15 11:47:02;;;;;;;3.55;1.33;;;34.20;46.20;;;;;;6366819;22;20036;-77
2022/06/15 11:49:43;;;;;;;5.28;1.50;;;34.50;46.50;;;;;;6339368;22;20703;-77
2022/06/15 11:52:33;;;;;;;2.55;1.42;;;34.70;45.70;;;;;;6366474;22;20051;-77
2022/06/15 11:55:16;;;;;;;2.80;1.83;;;34.90;45.20;;;;;;6338784;22;20002;-77
2022/06/15 11:57:51;;;;;;;2.15;1.45;;;35.20;45.00;;;;;;6339607;22;19999;-77
2022/06/15 12:00:26;;;;;;;2.35;1.52;;;35.20;45.30;;;;;;6367146;22;20390;-77
2022/06/15 12:03:00;;;;;;;3.28;1.60;;;35.30;44.00;;;;;;6366958;22;20767;-77
2022/06/15 12:05:50;;;;;;;3.10;1.30;;;35.40;45.30;;;;;;6366598;22;20068;-77
2022/06/15 12:08:41;;;;;;;2.25;1.25;;;35.40;42.60;;;;;;6364609;22;20523;-77
2022/06/15 12:14:39;;;;;;;3.50;1.35;;;35.50;41.20;;;;;;6366713;22;20052;-79
2022/06/15 12:17:37;;;;;;;3.55;1.65;;;35.60;40.70;;;;;;6368199;22;19998;-77
2022/06/15 12:20:44;;;;;;;3.45;1.33;;;35.80;42.40;;;;;;6363801;22;20002;-77
2022/06/15 12:23:41;;;;;;;1.77;1.35;;;35.90;40.70;;;;;;6366660;22;20056;-78
2022/06/15 12:26:13;;;;;;;1.75;1.15;;;36.10;40.30;;;;;;6370406;22;20382;-77
2022/06/15 12:29:01;;;;;;;2.30;1.10;;;36.20;39.90;;;;;;6342532;22;20060;-76
2022/06/15 12:31:53;;;;;;;1.83;1.10;;;36.30;39.00;;;;;;6296725;22;20009;-77
2022/06/15 12:35:09;;;;;;;2.80;1.40;;;36.40;39.50;;;;;;6369725;22;20332;-77
2022/06/15 12:37:59;;;;;;;1.63;1.23;;;36.50;39.50;;;;;;6339435;22;20455;-77
2022/06/15 12:40:32;;;;;;;2.60;1.30;;;36.60;39.20;;;;;;6370163;22;20408;-76
2022/06/15 12:43:14;;;;;;;2.50;1.40;;;36.80;38.30;;;;;;6369730;22;20066;-76
2022/06/15 12:45:52;;;;;;;2.63;1.50;;;36.90;38.70;;;;;;6342165;22;20408;-77
2022/06/15 12:48:30;;;;;;;4.30;1.57;;;37.00;37.90;;;;;;6342379;22;20010;-77
2022/06/15 12:51:18;;;;;;;1.92;1.40;;;36.90;37.60;;;;;;6369962;22;20454;-80
2022/06/15 12:54:00;;;;;;;2.25;1.40;;;37.00;38.40;;;;;;6342274;22;20010;-81
2022/06/15 12:56:46;;;;;;;2.88;1.58;;;37.10;38.40;;;;;;6369947;22;19998;-81
2022/06/15 12:59:30;;;;;;;2.85;1.52;;;37.20;38.20;;;;;;6342570;22;20409;-80
2022/06/15 13:01:56;;;;;;;2.45;1.48;;;37.20;36.60;;;;;;6370290;22;20073;-80
2022/06/15 13:04:43;;;;;;;3.35;1.45;;;37.20;37.20;;;;;;6369945;22;20333;-82
2022/06/15 13:07:18;;;;;;;2.03;1.10;;;37.20;38.10;;;;;;6369309;22;20002;-81
2022/06/15 13:10:06;;;;;;;2.92;1.10;;;37.20;37.80;;;;;;6341724;22;20006;-81
2022/06/15 13:12:49;;;;;;;1.20;0.90;;;37.20;37.20;;;;;;6341793;22;20450;-81
2022/06/15 13:15:37;;;;;;;3.13;0.90;;;37.20;37.50;;;;;;6370502;22;19999;-82
2022/06/15 13:18:13;;;;;;;3.83;1.15;;;37.20;36.90;;;;;;6370282;22;19995;-81
2022/06/15 13:20:48;;;;;;;4.15;0.90;;;37.10;36.10;;;;;;6370247;22;20005;-81
2022/06/15 13:23:22;;;;;;;1.35;0.90;;;37.00;35.40;;;;;;6370119;22;20037;-81
2022/06/15 13:25:56;;;;;;;1.95;1.20;;;37.00;36.50;;;;;;6370407;22;20093;-81
2022/06/15 13:28:25;;;;;;;2.58;1.10;;;37.00;36.20;;;;;;6370363;22;20435;-81
2022/06/15 13:30:58;;;;;;;4.03;1.20;;;36.80;36.50;;;;;;6342429;22;20065;-81
2022/06/15 13:33:45;;;;;;;1.35;1.02;;;36.70;36.80;;;;;;6343259;22;20007;-81
2022/06/15 13:36:11;;;;;;;2.25;1.10;;;36.70;35.70;;;;;;6372422;22;20002;-81
2022/06/15 13:38:37;;;;;;;3.28;1.27;;;36.60;36.50;;;;;;6371601;22;20384;-81